createdAt,value
2022-10-22T00:01:29.497Z,7.90
2022-10-22T00:04:34.565Z,7.25
2022-10-22T00:07:38.183Z,7.40
2022-10-22T00:10:41.261Z,7.00
2022-10-22T00:13:43.782Z,7.35
2022-10-22T00:16:56.447Z,6.53
2022-10-22T00:19:58.920Z,6.60
2022-10-22T00:23:01.243Z,6.17
2022-10-22T00:26:04.232Z,6.20
2022-10-22T00:29:06.672Z,6.57
2022-10-22T00:32:09.045Z,6.47
2022-10-22T00:35:11.766Z,7.05
2022-10-22T00:38:15.038Z,6.40
2022-10-22T00:41:17.627Z,6.70
2022-10-22T00:44:57.374Z,6.32
2022-10-22T00:48:09.286Z,6.57
2022-10-22T00:51:11.900Z,5.82
2022-10-22T00:54:14.242Z,6.57
2022-10-22T00:57:17.112Z,6.40
2022-10-22T01:00:21.933Z,6.28
2022-10-22T01:03:24.337Z,6.32
2022-10-22T01:06:29.178Z,6.40
2022-10-22T01:09:41.089Z,6.30
2022-10-22T01:12:57.487Z,7.00
2022-10-22T01:16:18.927Z,6.93
2022-10-22T01:19:43.632Z,6.40
2022-10-22T01:23:03.256Z,6.45
2022-10-22T01:26:46.280Z,6.00
2022-10-22T01:30:03.298Z,5.90
2022-10-22T01:33:07.450Z,6.45
2022-10-22T01:36:10.327Z,6.00
2022-10-22T01:39:14.587Z,6.47
2022-10-22T01:42:16.895Z,6.40
2022-10-22T01:45:19.285Z,5.83
2022-10-22T01:48:51.023Z,5.80
2022-10-22T01:52:14.628Z,6.18
2022-10-22T01:55:31.425Z,6.13
2022-10-22T01:59:00.237Z,5.83
2022-10-22T02:02:21.868Z,5.93
2022-10-22T02:05:30.569Z,5.57
2022-10-22T02:08:34.132Z,5.63
2022-10-22T02:11:36.636Z,5.40
2022-10-22T02:14:41.727Z,5.53
2022-10-22T02:17:45.516Z,5.80
2022-10-22T02:20:49.196Z,5.82
2022-10-22T02:23:52.023Z,5.13
2022-10-22T02:27:03.440Z,5.45
2022-10-22T02:30:11.901Z,5.50
2022-10-22T02:33:23.336Z,5.50
2022-10-22T02:36:26.312Z,5.45
2022-10-22T02:39:30.545Z,5.50
2022-10-22T02:42:33.820Z,4.75
2022-10-22T02:45:36.533Z,5.20
2022-10-22T02:48:40.336Z,5.13
2022-10-22T02:51:42.666Z,5.75
2022-10-22T02:54:45.054Z,5.03
2022-10-22T02:57:47.548Z,5.32
2022-10-22T03:00:50.076Z,5.10
2022-10-22T03:03:52.422Z,5.63
2022-10-22T03:06:54.892Z,5.80
2022-10-22T03:09:57.237Z,5.82
2022-10-22T03:12:59.561Z,5.18
2022-10-22T03:16:02.511Z,5.83
2022-10-22T03:19:04.940Z,5.60
2022-10-22T03:22:12.124Z,5.50
2022-10-22T03:25:19.411Z,5.47
2022-10-22T03:28:22.149Z,6.22
2022-10-22T03:31:24.523Z,5.90
2022-10-22T03:34:27.074Z,5.67
2022-10-22T03:37:30.324Z,6.53
2022-10-22T03:40:32.580Z,5.75
2022-10-22T03:43:36.100Z,5.95
2022-10-22T03:46:38.452Z,6.00
2022-10-22T03:49:40.849Z,5.57
2022-10-22T03:52:43.391Z,5.82
2022-10-22T03:55:45.805Z,6.05
2022-10-22T03:58:52.225Z,6.00
2022-10-22T04:01:54.571Z,6.20
2022-10-22T04:04:56.830Z,6.47
2022-10-22T04:07:59.818Z,6.22
2022-10-22T04:11:02.712Z,6.60
2022-10-22T04:14:05.236Z,6.47
2022-10-22T04:17:07.491Z,7.37
2022-10-22T04:20:13.220Z,7.27
2022-10-22T04:23:15.535Z,7.72
2022-10-22T04:26:18.825Z,8.07
2022-10-22T04:29:21.221Z,7.65
2022-10-22T04:32:23.723Z,7.30
2022-10-22T04:35:26.692Z,7.57
2022-10-22T04:38:28.941Z,7.38
2022-10-22T04:41:37.236Z,7.05
2022-10-22T04:44:39.532Z,6.55
2022-10-22T04:47:42.112Z,7.07
2022-10-22T04:50:44.616Z,6.60
2022-10-22T04:53:47.559Z,7.40
2022-10-22T04:56:49.928Z,7.53
2022-10-22T04:59:52.561Z,7.70
2022-10-22T05:02:54.919Z,7.50
2022-10-22T05:06:02.007Z,7.90
2022-10-22T05:09:07.393Z,7.97
2022-10-22T05:12:09.962Z,7.82
2022-10-22T05:15:12.222Z,7.65
2022-10-22T05:18:16.827Z,7.60
2022-10-22T05:21:22.613Z,8.50
2022-10-22T05:24:27.552Z,8.68
2022-10-22T05:27:30.412Z,8.60
2022-10-22T05:30:32.742Z,8.27
2022-10-22T05:33:35.154Z,8.20
2022-10-22T05:36:38.313Z,8.53
2022-10-22T05:39:41.691Z,9.27
2022-10-22T05:42:43.957Z,8.43
2022-10-22T05:45:46.344Z,9.43
2022-10-22T05:48:52.616Z,9.03
2022-10-22T05:51:54.938Z,9.97
2022-10-22T05:54:57.416Z,9.82
2022-10-22T05:57:59.804Z,13.40
2022-10-22T06:01:04.702Z,10.38
2022-10-22T06:04:10.862Z,10.90
2022-10-22T06:07:15.552Z,9.23
2022-10-22T06:10:21.419Z,9.50
2022-10-22T06:13:25.087Z,8.93
2022-10-22T06:16:32.194Z,10.27
2022-10-22T06:19:58.992Z,10.57
2022-10-22T06:23:04.870Z,10.00
2022-10-22T06:26:08.731Z,10.38
2022-10-22T06:29:19.606Z,9.25
2022-10-22T06:32:22.306Z,9.05
2022-10-22T06:35:25.535Z,7.87
2022-10-22T06:38:30.879Z,8.57
2022-10-22T06:41:33.461Z,9.18
2022-10-22T06:44:36.174Z,8.63
2022-10-22T06:47:39.120Z,9.48
2022-10-22T06:50:42.080Z,9.90
2022-10-22T06:53:44.431Z,9.30
2022-10-22T06:56:46.770Z,8.77
2022-10-22T06:59:49.368Z,9.65
2022-10-22T07:02:56.464Z,12.32
2022-10-22T07:06:02.770Z,16.30
2022-10-22T07:09:05.362Z,11.13
2022-10-22T07:12:08.850Z,12.05
2022-10-22T07:15:11.633Z,12.30
2022-10-22T07:18:13.917Z,11.95
2022-10-22T07:21:17.999Z,10.93
2022-10-22T07:24:20.252Z,11.43
2022-10-22T07:27:22.437Z,11.57
2022-10-22T07:30:24.853Z,11.25
2022-10-22T07:33:27.437Z,11.00
2022-10-22T07:36:29.642Z,10.83
2022-10-22T07:39:31.933Z,10.40
2022-10-22T07:42:34.239Z,9.80
2022-10-22T07:45:36.551Z,9.60
2022-10-22T07:48:39.303Z,9.43
2022-10-22T07:51:41.637Z,9.30
2022-10-22T07:54:43.849Z,8.40
2022-10-22T07:57:46.067Z,7.10
2022-10-22T08:00:49.502Z,8.18
2022-10-22T08:03:51.900Z,8.05
2022-10-22T08:06:54.080Z,7.70
2022-10-22T08:09:56.909Z,7.70
2022-10-22T08:12:59.173Z,7.50
2022-10-22T08:16:01.737Z,7.68
2022-10-22T08:19:04.007Z,8.35
2022-10-22T08:22:06.362Z,8.67
2022-10-22T08:25:09.010Z,8.00
2022-10-22T08:28:11.307Z,8.18
2022-10-22T08:31:13.907Z,8.07
2022-10-22T08:34:17.181Z,8.00
2022-10-22T08:37:19.434Z,7.77
2022-10-22T08:40:28.859Z,8.00
2022-10-22T08:43:33.958Z,7.60
2022-10-22T08:46:54.634Z,7.47
2022-10-22T08:49:59.503Z,8.05
2022-10-22T08:53:07.280Z,7.80
2022-10-22T08:56:09.566Z,7.87
2022-10-22T08:59:19.151Z,8.52
2022-10-22T09:02:38.829Z,8.13
2022-10-22T09:06:10.983Z,8.00
2022-10-22T09:09:17.090Z,8.10
2022-10-22T09:12:29.065Z,8.03
2022-10-22T09:15:31.537Z,7.88
2022-10-22T09:18:40.419Z,7.85
2022-10-22T09:21:58.571Z,8.10
2022-10-22T09:25:31.640Z,8.37
2022-10-22T09:28:34.146Z,7.57
2022-10-22T09:31:36.558Z,7.72
2022-10-22T09:34:39.370Z,8.63
2022-10-22T09:37:50.526Z,8.30
2022-10-22T09:40:55.062Z,11.87
2022-10-22T09:43:58.269Z,8.87
2022-10-22T09:47:42.553Z,9.50
2022-10-22T09:50:56.341Z,8.32
2022-10-22T09:54:01.672Z,8.77
2022-10-22T09:57:07.075Z,8.80
2022-10-22T10:00:11.138Z,9.00
2022-10-22T10:03:19.010Z,8.30
2022-10-22T10:06:22.840Z,8.82
2022-10-22T10:09:27.117Z,9.13
2022-10-22T10:12:41.449Z,9.00
2022-10-22T10:15:56.542Z,8.53
2022-10-22T10:19:35.405Z,8.60
2022-10-22T10:23:10.402Z,9.50
2022-10-22T10:26:19.590Z,9.32
2022-10-22T10:29:31.968Z,10.27
2022-10-22T10:32:48.241Z,9.00
2022-10-22T10:36:14.870Z,9.10
2022-10-22T10:39:35.526Z,9.15
2022-10-22T10:42:49.122Z,9.07
2022-10-22T10:46:21.181Z,8.30
2022-10-22T10:49:24.885Z,9.30
2022-10-22T10:52:41.663Z,8.90
2022-10-22T10:55:55.431Z,9.75
2022-10-22T10:59:21.241Z,9.20
2022-10-22T11:02:45.301Z,9.60
2022-10-22T11:05:56.094Z,9.87
2022-10-22T11:09:03.505Z,9.15
2022-10-22T11:12:10.537Z,8.95
2022-10-22T11:15:33.962Z,9.52
2022-10-22T11:18:40.840Z,9.47
2022-10-22T11:21:50.119Z,14.97
2022-10-22T11:25:06.696Z,10.80
2022-10-22T11:28:16.609Z,9.90
2022-10-22T11:31:20.305Z,9.63
2022-10-22T11:34:37.869Z,10.13
2022-10-22T11:37:40.516Z,10.10
2022-10-22T11:40:48.145Z,12.20
2022-10-22T11:44:06.560Z,10.00
2022-10-22T11:47:18.139Z,9.85
2022-10-22T11:50:25.524Z,10.13
2022-10-22T11:53:34.763Z,10.63
2022-10-22T11:56:39.388Z,10.52
2022-10-22T11:59:59.573Z,11.10
2022-10-22T12:03:04.492Z,9.88
2022-10-22T12:06:13.313Z,9.87
2022-10-22T12:09:19.045Z,10.60
2022-10-22T12:12:21.274Z,10.23
2022-10-22T12:15:27.973Z,10.65
2022-10-22T12:18:41.063Z,9.98
2022-10-22T12:21:48.664Z,12.70
2022-10-22T12:24:57.300Z,11.23
2022-10-22T12:28:01.026Z,10.88
2022-10-22T12:31:03.495Z,11.57
2022-10-22T12:34:06.185Z,11.10
2022-10-22T12:37:11.052Z,10.23
2022-10-22T12:40:22.102Z,11.20
2022-10-22T12:43:29.453Z,11.00
2022-10-22T12:46:34.088Z,10.95
2022-10-22T12:49:41.376Z,11.25
2022-10-22T12:52:43.867Z,10.97
2022-10-22T12:55:51.590Z,11.23
2022-10-22T12:58:59.609Z,10.63
2022-10-22T13:02:02.240Z,10.30
2022-10-22T13:05:13.540Z,12.73
2022-10-22T13:08:22.255Z,11.20
2022-10-22T13:11:31.669Z,29.90
2022-10-22T13:14:35.698Z,11.50
2022-10-22T13:17:38.089Z,24.88
2022-10-22T13:20:53.946Z,43.58
2022-10-22T13:24:01.794Z,14.97
2022-10-22T13:27:03.943Z,11.93
2022-10-22T13:30:22.027Z,10.68
2022-10-22T13:33:26.318Z,12.00
2022-10-22T13:36:29.058Z,14.27
2022-10-22T13:39:32.830Z,14.57
2022-10-22T13:42:36.080Z,10.97
2022-10-22T13:45:38.391Z,10.60
2022-10-22T13:48:41.006Z,18.58
2022-10-22T13:51:43.778Z,11.27
2022-10-22T13:54:46.052Z,10.67
2022-10-22T13:57:49.603Z,12.23
2022-10-22T14:00:55.808Z,11.32
2022-10-22T14:04:00.310Z,11.80
2022-10-22T14:07:03.890Z,10.65
2022-10-22T14:10:21.242Z,11.77
2022-10-22T14:13:23.520Z,11.03
2022-10-22T14:16:27.655Z,10.98
2022-10-22T14:19:30.642Z,14.85
2022-10-22T14:22:33.543Z,12.13
2022-10-22T14:25:35.761Z,12.13
2022-10-22T14:28:46.175Z,12.67
2022-10-22T14:32:25.383Z,11.73
2022-10-22T14:35:28.373Z,11.52
2022-10-22T14:38:30.629Z,11.00
2022-10-22T14:41:33.311Z,11.60
2022-10-22T14:44:38.402Z,13.47
2022-10-22T14:47:44.422Z,18.95
2022-10-22T14:50:47.927Z,14.63
2022-10-22T14:53:50.559Z,12.25
2022-10-22T14:56:52.865Z,12.30
2022-10-22T14:59:55.078Z,11.77
2022-10-22T15:03:03.318Z,13.93
2022-10-22T15:06:07.425Z,13.48
2022-10-22T15:09:09.921Z,14.48
2022-10-22T15:12:12.428Z,14.67
2022-10-22T15:15:16.502Z,16.83
2022-10-22T15:18:20.962Z,15.85
2022-10-22T15:21:23.936Z,13.93
2022-10-22T15:24:26.290Z,12.90
2022-10-22T15:27:28.991Z,12.93
2022-10-22T15:30:31.567Z,13.13
2022-10-22T15:33:34.328Z,11.88
2022-10-22T15:36:36.773Z,11.38
2022-10-22T15:39:40.828Z,11.25
2022-10-22T15:43:35.066Z,11.00
2022-10-22T15:47:03.420Z,11.33
2022-10-22T15:50:30.298Z,11.65
2022-10-22T15:53:42.822Z,13.45
2022-10-22T15:56:45.737Z,13.70
2022-10-22T15:59:50.334Z,14.77
2022-10-22T16:02:54.506Z,16.60
2022-10-22T16:05:58.854Z,16.30
2022-10-22T16:09:02.821Z,17.35
2022-10-22T16:12:05.487Z,16.05
2022-10-22T16:15:09.485Z,16.07
2022-10-22T16:18:12.210Z,15.87
2022-10-22T16:21:15.629Z,16.70
2022-10-22T16:24:18.250Z,16.08
2022-10-22T16:27:20.518Z,16.17
2022-10-22T16:30:22.754Z,17.50
2022-10-22T16:33:25.023Z,17.50
2022-10-22T16:36:27.264Z,18.05
2022-10-22T16:39:29.578Z,18.38
2022-10-22T16:42:31.699Z,17.90
2022-10-22T16:45:33.949Z,19.07
2022-10-22T16:48:40.438Z,20.97
2022-10-22T16:51:42.628Z,19.73
2022-10-22T16:54:46.819Z,20.05
2022-10-22T16:57:52.434Z,19.63
2022-10-22T17:01:07.323Z,19.97
2022-10-22T17:04:09.969Z,21.77
2022-10-22T17:07:12.318Z,20.40
2022-10-22T17:10:15.230Z,21.73
2022-10-22T17:13:18.008Z,19.73
2022-10-22T17:16:22.907Z,20.27
2022-10-22T17:19:26.780Z,28.63
2022-10-22T17:22:29.735Z,26.15
2022-10-22T17:25:43.859Z,25.90
2022-10-22T17:28:49.917Z,21.60
2022-10-22T17:31:53.131Z,23.83
2022-10-22T17:34:55.534Z,23.20
2022-10-22T17:37:58.127Z,23.42
2022-10-22T17:41:04.109Z,24.95
2022-10-22T17:44:12.302Z,26.77
2022-10-22T17:47:15.376Z,28.73
2022-10-22T17:50:19.514Z,31.87
2022-10-22T17:53:22.399Z,28.83
2022-10-22T17:56:26.893Z,25.52
2022-10-22T17:59:29.301Z,25.02
2022-10-22T18:02:31.925Z,27.60
2022-10-22T18:05:34.725Z,26.50
2022-10-22T18:08:37.761Z,26.08
2022-10-22T18:11:41.507Z,27.05
2022-10-22T18:14:44.171Z,27.92
2022-10-22T18:17:47.423Z,30.13
2022-10-22T18:20:51.123Z,27.00
2022-10-22T18:23:54.262Z,27.83
2022-10-22T18:26:59.219Z,29.85
2022-10-22T18:30:03.444Z,30.65
2022-10-22T18:33:06.129Z,29.50
2022-10-22T18:36:11.184Z,28.67
2022-10-22T18:39:17.325Z,30.70
2022-10-22T18:42:20.128Z,29.52
2022-10-22T18:45:24.555Z,26.60
2022-10-22T18:48:27.590Z,27.53
2022-10-22T18:51:31.314Z,27.30
2022-10-22T18:54:33.955Z,27.33
2022-10-22T18:57:36.592Z,29.48
2022-10-22T19:00:40.400Z,29.95
2022-10-22T19:03:43.739Z,29.23
2022-10-22T19:06:46.447Z,23.63
2022-10-22T19:09:48.683Z,23.20
2022-10-22T19:12:50.912Z,23.17
2022-10-22T19:15:53.510Z,24.23
2022-10-22T19:19:01.570Z,22.23
2022-10-22T19:22:04.989Z,22.50
2022-10-22T19:25:11.909Z,23.98
2022-10-22T19:28:15.013Z,24.20
2022-10-22T19:31:20.257Z,26.15
2022-10-22T19:34:22.932Z,28.23
2022-10-22T19:37:25.490Z,23.83
2022-10-22T19:40:29.689Z,23.42
2022-10-22T19:43:32.236Z,24.13
2022-10-22T19:46:35.441Z,23.80
2022-10-22T19:49:38.171Z,22.63
2022-10-22T19:52:42.627Z,26.57
2022-10-22T19:55:49.279Z,25.85
2022-10-22T19:58:55.771Z,26.38
2022-10-22T20:01:59.130Z,27.58
2022-10-22T20:05:01.986Z,26.87
2022-10-22T20:08:04.488Z,26.90
2022-10-22T20:11:15.551Z,25.63
2022-10-22T20:14:19.871Z,24.90
2022-10-22T20:17:22.472Z,24.48
2022-10-22T20:20:26.547Z,22.07
2022-10-22T20:23:29.289Z,23.90
2022-10-22T20:26:31.914Z,22.98
2022-10-22T20:29:34.392Z,22.67
2022-10-22T20:32:38.566Z,22.15
2022-10-22T20:35:41.428Z,24.10
2022-10-22T20:38:48.549Z,28.70
2022-10-22T20:41:51.699Z,27.88
2022-10-22T20:44:54.324Z,26.00
2022-10-22T20:48:02.696Z,25.52
2022-10-22T20:51:05.615Z,27.13
2022-10-22T20:54:09.003Z,29.53
2022-10-22T20:57:12.587Z,30.70
2022-10-22T21:00:15.330Z,32.60
2022-10-22T21:03:17.590Z,39.90
2022-10-22T21:06:23.412Z,36.40
2022-10-22T21:09:25.746Z,31.20
2022-10-22T21:12:27.990Z,32.65
2022-10-22T21:15:30.454Z,31.80
2022-10-22T21:18:33.517Z,29.45
2022-10-22T21:21:35.763Z,29.20
2022-10-22T21:24:38.018Z,30.33
2022-10-22T21:27:42.400Z,30.77
2022-10-22T21:30:45.705Z,28.80
2022-10-22T21:33:50.704Z,29.42
2022-10-22T21:36:53.081Z,28.53
2022-10-22T21:39:55.878Z,29.00
2022-10-22T21:42:58.022Z,29.83
2022-10-22T21:46:07.754Z,30.98
2022-10-22T21:49:10.952Z,31.35
2022-10-22T21:52:13.155Z,29.63
2022-10-22T21:55:15.354Z,28.73
2022-10-22T21:58:17.804Z,29.20
2022-10-22T22:01:20.505Z,25.77
2022-10-22T22:04:22.651Z,28.48
2022-10-22T22:07:24.789Z,28.60
2022-10-22T22:10:27.260Z,31.80
2022-10-22T22:13:29.518Z,34.00
2022-10-22T22:16:32.998Z,37.90
2022-10-22T22:19:35.272Z,37.05
2022-10-22T22:22:37.435Z,33.97
2022-10-22T22:25:39.550Z,34.30
2022-10-22T22:28:41.767Z,38.33
2022-10-22T22:31:45.923Z,34.83
2022-10-22T22:34:48.106Z,36.80
2022-10-22T22:37:50.373Z,38.27
2022-10-22T22:40:52.527Z,34.60
2022-10-22T22:46:57.764Z,30.02
2022-10-22T22:49:59.933Z,30.80
2022-10-22T22:53:02.143Z,27.90
2022-10-22T22:56:10.086Z,29.90
2022-10-22T22:59:12.323Z,31.92
2022-10-22T23:02:15.042Z,32.25
2022-10-22T23:05:17.278Z,29.63
2022-10-22T23:08:19.443Z,29.30
2022-10-22T23:11:22.853Z,27.40
2022-10-22T23:14:25.166Z,28.00
2022-10-22T23:17:27.369Z,28.63
2022-10-22T23:20:29.610Z,27.80
2022-10-22T23:23:32.792Z,28.57
2022-10-22T23:26:40.440Z,27.83
2022-10-22T23:29:42.570Z,27.98
2022-10-22T23:32:45.051Z,29.10
2022-10-22T23:35:47.279Z,29.00
2022-10-22T23:38:50.367Z,28.17
2022-10-22T23:41:53.506Z,28.30
2022-10-22T23:44:55.736Z,28.27
2022-10-22T23:47:57.917Z,27.85
2022-10-22T23:51:11.453Z,27.73
2022-10-22T23:54:16.442Z,29.23
2022-10-22T23:57:18.720Z,25.53
